Esquel, Argentina
Current Conditions -  °F | °C
As of 1:00 PM on Tuesday 27 Jan 2015 (Local Time) from SCAP Reporting Station
Broken Clouds Broken Clouds  
Wind Chill: 61°   Ceiling: 3600
Heat Index: 61°   Visibility: 6mi
Dew Point: 39°   Wind: 15mph
Humidity: 45%   Direction: 230°SW
Pressure: 30.09"   Gusts: 28mph
Location:  42.91°S, 71.32°W
Report Text: SCAP 271600Z 23013G24KT 180V270 9999 BKN036 16/04 Q1019
Loading
Personal Weather Stations






























Interactive Weather Map New forecast layout! Learn more

10-Day Weather Forecast

Advertisements
Track Severe Weather on mobile